Time,TemperatureF,DewpointF,PressureIn,WindDirection,WindDirectionDegrees,WindSpeedMPH,WindSpeedGustMPH,Humidity,HourlyPrecipIn,Conditions,Clouds,dailyrainin,SoftwareType,DateUTC
2013-03-19 00:01:00,34.6,30.6,29.68,WSW,247,13.0,22.0,85,0.00,,,-99.99,WeatherLink 5.7,2013-03-19 04:01:00,
2013-03-19 00:11:00,34.6,30.3,29.67,WSW,247,11.0,20.0,84,0.00,,,-99.99,WeatherLink 5.7,2013-03-19 04:11:00,
2013-03-19 00:21:00,34.5,29.9,29.68,WSW,247,10.0,21.0,83,0.00,,,-99.99,WeatherLink 5.7,2013-03-19 04:21:00,
2013-03-19 00:31:00,34.5,29.9,29.67,WSW,247,10.0,18.0,83,0.00,,,-99.99,WeatherLink 5.7,2013-03-19 04:31:00,
2013-03-19 00:41:00,34.4,29.8,29.67,WSW,247,10.0,17.0,83,0.00,,,-99.99,WeatherLink 5.7,2013-03-19 04:41:00,
2013-03-19 00:51:00,34.4,29.8,29.67,WSW,247,8.0,16.0,83,0.00,,,-99.99,WeatherLink 5.7,2013-03-19 04:51:00,
2013-03-19 01:01:00,34.3,29.7,29.66,WSW,247,8.0,15.0,83,0.00,,,-99.99,WeatherLink 5.7,2013-03-19 05:01:00,
2013-03-19 01:11:00,34.3,29.7,29.67,WSW,247,8.0,15.0,83,0.00,,,-99.99,WeatherLink 5.7,2013-03-19 05:11:00,
2013-03-19 01:22:00,34.3,30.0,29.67,SW,225,11.0,18.0,84,0.00,,,-99.99,WeatherLink 5.7,2013-03-19 05:22:00,
2013-03-19 01:31:00,34.2,29.6,29.66,SW,225,12.0,25.0,83,0.00,,,-99.99,WeatherLink 5.7,2013-03-19 05:31:00,
2013-03-19 01:41:00,33.8,27.4,29.66,WSW,247,16.0,25.0,77,0.00,,,-99.99,WeatherLink 5.7,2013-03-19 05:41:00,
2013-03-19 01:52:00,33.7,26.0,29.66,WSW,247,17.0,28.0,73,0.00,,,-99.99,WeatherLink 5.7,2013-03-19 05:52:00,
2013-03-19 02:01:00,33.7,25.3,29.66,WSW,247,16.0,27.0,71,0.00,,,-99.99,WeatherLink 5.7,2013-03-19 06:01:00,
2013-03-19 02:11:00,33.4,24.7,29.67,WSW,247,16.0,30.0,70,0.00,,,-99.99,WeatherLink 5.7,2013-03-19 06:11:00,
2013-03-19 02:21:00,33.1,25.1,29.67,WSW,247,14.0,25.0,72,0.00,,,-99.99,WeatherLink 5.7,2013-03-19 06:21:00,
2013-03-19 02:31:00,32.8,24.4,29.67,WSW,247,14.0,25.0,71,0.00,,,-99.99,WeatherLink 5.7,2013-03-19 06:31:00,
2013-03-19 02:41:00,32.6,23.9,29.68,WSW,247,16.0,31.0,70,0.00,,,-99.99,WeatherLink 5.7,2013-03-19 06:41:00,
2013-03-19 02:51:00,32.2,23.5,29.68,WSW,247,15.0,31.0,70,0.00,,,-99.99,WeatherLink 5.7,2013-03-19 06:51:00,
2013-03-19 03:01:00,31.7,23.4,29.68,WSW,247,14.0,25.0,71,0.00,,,-99.99,WeatherLink 5.7,2013-03-19 07:01:00,
2013-03-19 03:11:00,31.3,23.0,29.69,WSW,247,15.0,23.0,71,0.00,,,-99.99,WeatherLink 5.7,2013-03-19 07:11:00,
2013-03-19 03:21:00,31.1,22.5,29.69,West,270,15.0,28.0,70,0.00,,,-99.99,WeatherLink 5.7,2013-03-19 07:21:00,
2013-03-19 03:31:00,30.4,21.1,29.70,West,270,18.0,30.0,68,0.00,,,-99.99,WeatherLink 5.7,2013-03-19 07:31:00,
2013-03-19 03:41:00,29.7,20.8,29.70,West,270,15.0,26.0,69,0.00,,,-99.99,WeatherLink 5.7,2013-03-19 07:41:00,
2013-03-19 03:51:00,29.4,20.5,29.70,West,270,15.0,23.0,69,0.00,,,-99.99,WeatherLink 5.7,2013-03-19 07:51:00,
2013-03-19 04:01:00,29.3,20.4,29.71,West,270,14.0,26.0,69,0.00,,,-99.99,WeatherLink 5.7,2013-03-19 08:01:00,
2013-03-19 04:11:00,29.3,20.7,29.71,West,270,12.0,22.0,70,0.00,,,-99.99,WeatherLink 5.7,2013-03-19 08:11:00,
2013-03-19 04:21:00,29.2,20.6,29.72,West,270,13.0,27.0,70,0.00,,,-99.99,WeatherLink 5.7,2013-03-19 08:21:00,
2013-03-19 04:31:00,28.8,20.2,29.72,WSW,247,13.0,24.0,70,0.00,,,-99.99,WeatherLink 5.7,2013-03-19 08:31:00,
2013-03-19 04:41:00,28.4,19.2,29.73,West,270,16.0,28.0,68,0.00,,,-99.99,WeatherLink 5.7,2013-03-19 08:41:00,
2013-03-19 04:51:00,27.9,18.0,29.73,West,270,16.0,28.0,66,0.00,,,-99.99,WeatherLink 5.7,2013-03-19 08:51:00,
2013-03-19 05:01:00,27.5,17.3,29.73,West,270,14.0,26.0,65,0.00,,,-99.99,WeatherLink 5.7,2013-03-19 09:01:00,
2013-03-19 05:11:00,27.3,17.4,29.73,West,270,13.0,25.0,66,0.00,,,-99.99,WeatherLink 5.7,2013-03-19 09:11:00,
2013-03-19 05:21:00,27.2,17.7,29.73,West,270,13.0,22.0,67,0.00,,,-99.99,WeatherLink 5.7,2013-03-19 09:21:00,
2013-03-19 05:31:00,27.2,17.7,29.74,West,270,12.0,24.0,67,0.00,,,-99.99,WeatherLink 5.7,2013-03-19 09:31:00,
2013-03-19 05:41:00,27.1,16.9,29.74,West,270,15.0,25.0,65,0.00,,,-99.99,WeatherLink 5.7,2013-03-19 09:41:00,
2013-03-19 05:51:00,27.2,17.0,29.74,West,270,15.0,26.0,65,0.00,,,-99.99,WeatherLink 5.7,2013-03-19 09:51:00,
2013-03-19 06:01:00,27.0,17.5,29.75,WSW,247,16.0,27.0,67,0.00,,,-99.99,WeatherLink 5.7,2013-03-19 10:01:00,
2013-03-19 06:11:00,26.5,17.0,29.75,WSW,247,13.0,24.0,67,0.00,,,-99.99,WeatherLink 5.7,2013-03-19 10:11:00,
2013-03-19 06:21:00,26.0,15.1,29.75,West,270,12.0,20.0,63,0.00,,,-99.99,WeatherLink 5.7,2013-03-19 10:21:00,
2013-03-19 06:31:00,25.9,15.0,29.75,West,270,13.0,22.0,63,0.00,,,-99.99,WeatherLink 5.7,2013-03-19 10:31:00,
2013-03-19 06:41:00,25.6,16.2,29.76,West,270,13.0,23.0,67,0.00,,,-99.99,WeatherLink 5.7,2013-03-19 10:41:00,
2013-03-19 06:51:00,25.1,16.7,29.76,West,270,11.0,20.0,70,0.00,,,-99.99,WeatherLink 5.7,2013-03-19 10:51:00,
2013-03-19 07:01:00,24.8,16.7,29.77,WSW,247,11.0,24.0,71,0.00,,,-99.99,WeatherLink 5.7,2013-03-19 11:01:00,
2013-03-19 07:11:00,24.7,15.6,29.77,West,270,14.0,24.0,68,0.00,,,-99.99,WeatherLink 5.7,2013-03-19 11:11:00,
2013-03-19 07:21:00,24.9,15.8,29.78,WSW,247,13.0,24.0,68,0.00,,,-99.99,WeatherLink 5.7,2013-03-19 11:21:00,
2013-03-19 07:31:00,24.6,16.2,29.78,WSW,247,13.0,22.0,70,0.00,,,-99.99,WeatherLink 5.7,2013-03-19 11:31:00,
2013-03-19 07:41:00,24.2,15.8,29.79,WSW,247,12.0,21.0,70,0.00,,,-99.99,WeatherLink 5.7,2013-03-19 11:41:00,
2013-03-19 07:51:00,23.9,14.5,29.79,WSW,247,15.0,28.0,67,0.00,,,-99.99,WeatherLink 5.7,2013-03-19 11:51:00,
2013-03-19 08:01:00,23.8,13.4,29.79,West,270,15.0,27.0,64,0.00,,,-99.99,WeatherLink 5.7,2013-03-19 12:01:00,
2013-03-19 08:11:00,23.9,12.8,29.79,WSW,247,15.0,29.0,62,0.00,,,-99.99,WeatherLink 5.7,2013-03-19 12:11:00,
2013-03-19 08:21:00,24.0,12.5,29.78,WSW,247,16.0,28.0,61,0.00,,,-99.99,WeatherLink 5.7,2013-03-19 12:21:00,
2013-03-19 08:31:00,23.9,13.8,29.78,West,270,14.0,24.0,65,0.00,,,-99.99,WeatherLink 5.7,2013-03-19 12:31:00,
2013-03-19 08:41:00,23.6,14.9,29.78,WSW,247,12.0,20.0,69,0.00,,,-99.99,WeatherLink 5.7,2013-03-19 12:41:00,
2013-03-19 08:51:00,23.4,15.4,29.79,WSW,247,13.0,23.0,71,0.00,,,-99.99,WeatherLink 5.7,2013-03-19 12:51:00,
2013-03-19 09:01:00,23.2,15.8,29.79,WSW,247,12.0,18.0,73,0.00,,,-99.99,WeatherLink 5.7,2013-03-19 13:01:00,
2013-03-19 09:11:00,23.3,15.3,29.79,WSW,247,13.0,22.0,71,0.00,,,-99.99,WeatherLink 5.7,2013-03-19 13:11:00,
2013-03-19 09:21:00,23.6,13.9,29.78,WSW,247,15.0,26.0,66,0.00,,,-99.99,WeatherLink 5.7,2013-03-19 13:21:00,
2013-03-19 09:31:00,24.1,12.9,29.78,West,270,14.0,27.0,62,0.00,,,-99.99,WeatherLink 5.7,2013-03-19 13:31:00,
2013-03-19 09:41:00,24.6,13.1,29.78,West,270,14.0,25.0,61,0.00,,,-99.99,WeatherLink 5.7,2013-03-19 13:41:00,
2013-03-19 09:51:00,24.5,13.0,29.79,West,270,15.0,28.0,61,0.00,,,-99.99,WeatherLink 5.7,2013-03-19 13:51:00,
2013-03-19 10:01:00,24.4,13.6,29.79,West,270,13.0,23.0,63,0.00,,,-99.99,WeatherLink 5.7,2013-03-19 14:01:00,
2013-03-19 10:11:00,24.4,14.7,29.79,West,270,12.0,19.0,66,0.00,,,-99.99,WeatherLink 5.7,2013-03-19 14:11:00,
2013-03-19 10:21:00,24.4,15.7,29.79,West,270,11.0,19.0,69,0.00,,,-99.99,WeatherLink 5.7,2013-03-19 14:21:00,
2013-03-19 10:31:00,24.0,16.0,29.80,WSW,247,13.0,23.0,71,0.00,,,-99.99,WeatherLink 5.7,2013-03-19 14:31:00,
2013-03-19 10:41:00,23.6,14.2,29.80,West,270,14.0,25.0,67,0.00,,,-99.99,WeatherLink 5.7,2013-03-19 14:41:00,
2013-03-19 10:51:00,23.8,13.4,29.80,West,270,16.0,31.0,64,0.00,,,-99.99,WeatherLink 5.7,2013-03-19 14:51:00,
2013-03-19 11:01:00,24.2,12.7,29.80,WSW,247,17.0,29.0,61,0.00,,,-99.99,WeatherLink 5.7,2013-03-19 15:01:00,
2013-03-19 11:11:00,25.1,12.4,29.80,West,270,16.0,29.0,58,0.00,,,-99.99,WeatherLink 5.7,2013-03-19 15:11:00,
2013-03-19 11:21:00,26.3,12.7,29.80,West,270,15.0,29.0,56,0.00,,,-99.99,WeatherLink 5.7,2013-03-19 15:21:00,
2013-03-19 11:31:00,26.2,12.2,29.81,West,270,16.0,29.0,55,0.00,,,-99.99,WeatherLink 5.7,2013-03-19 15:31:00,
2013-03-19 11:41:00,25.7,12.2,29.82,WSW,247,17.0,32.0,56,0.00,,,-99.99,WeatherLink 5.7,2013-03-19 15:41:00,
2013-03-19 11:51:00,25.3,12.2,29.82,West,270,17.0,32.0,57,0.00,,,-99.99,WeatherLink 5.7,2013-03-19 15:51:00,
2013-03-19 12:01:00,25.9,12.7,29.82,WSW,247,16.0,27.0,57,0.00,,,-99.99,WeatherLink 5.7,2013-03-19 16:01:00,
2013-03-19 12:11:00,26.6,13.4,29.82,West,270,15.0,24.0,57,0.00,,,-99.99,WeatherLink 5.7,2013-03-19 16:11:00,
2013-03-19 12:21:00,26.2,13.8,29.82,West,270,15.0,31.0,59,0.00,,,-99.99,WeatherLink 5.7,2013-03-19 16:21:00,
2013-03-19 12:31:00,26.2,13.4,29.83,West,270,14.0,23.0,58,0.00,,,-99.99,WeatherLink 5.7,2013-03-19 16:31:00,
2013-03-19 12:41:00,26.3,13.5,29.83,West,270,13.0,22.0,58,0.00,,,-99.99,WeatherLink 5.7,2013-03-19 16:41:00,
2013-03-19 12:51:00,26.3,15.0,29.83,WSW,247,13.0,22.0,62,0.00,,,-99.99,WeatherLink 5.7,2013-03-19 16:51:00,
2013-03-19 13:01:00,26.5,14.9,29.83,West,270,16.0,27.0,61,0.00,,,-99.99,WeatherLink 5.7,2013-03-19 17:01:00,
2013-03-19 13:11:00,26.7,14.7,29.84,West,270,15.0,27.0,60,0.00,,,-99.99,WeatherLink 5.7,2013-03-19 17:11:00,
2013-03-19 13:21:00,26.8,14.0,29.84,West,270,17.0,28.0,58,0.00,,,-99.99,WeatherLink 5.7,2013-03-19 17:21:00,
2013-03-19 13:31:00,26.7,13.5,29.84,West,270,14.0,25.0,57,0.00,,,-99.99,WeatherLink 5.7,2013-03-19 17:31:00,
2013-03-19 13:41:00,26.9,13.7,29.85,West,270,15.0,24.0,57,0.00,,,-99.99,WeatherLink 5.7,2013-03-19 17:41:00,
2013-03-19 13:51:00,27.5,13.8,29.84,West,270,15.0,28.0,56,0.00,,,-99.99,WeatherLink 5.7,2013-03-19 17:51:00,
2013-03-19 14:02:00,27.5,14.2,29.85,West,270,15.0,28.0,57,0.00,,,-99.99,WeatherLink 5.7,2013-03-19 18:02:00,
2013-03-19 14:11:00,27.1,15.0,29.85,West,270,14.0,23.0,60,0.00,,,-99.99,WeatherLink 5.7,2013-03-19 18:11:00,
2013-03-19 14:21:00,27.2,15.5,29.85,West,270,15.0,27.0,61,0.00,,,-99.99,WeatherLink 5.7,2013-03-19 18:21:00,
2013-03-19 14:31:00,27.5,14.6,29.85,West,270,16.0,30.0,58,0.00,,,-99.99,WeatherLink 5.7,2013-03-19 18:31:00,
2013-03-19 14:42:00,27.7,15.2,29.85,West,270,17.0,30.0,59,0.00,,,-99.99,WeatherLink 5.7,2013-03-19 18:42:00,
2013-03-19 14:51:00,27.5,15.0,29.86,West,270,16.0,25.0,59,0.00,,,-99.99,WeatherLink 5.7,2013-03-19 18:51:00,
2013-03-19 15:01:00,27.2,15.1,29.86,West,270,16.0,28.0,60,0.00,,,-99.99,WeatherLink 5.7,2013-03-19 19:01:00,
2013-03-19 15:11:00,27.6,14.7,29.86,West,270,18.0,28.0,58,0.00,,,-99.99,WeatherLink 5.7,2013-03-19 19:11:00,
2013-03-19 15:21:00,27.9,15.4,29.86,West,270,17.0,29.0,59,0.00,,,-99.99,WeatherLink 5.7,2013-03-19 19:21:00,
2013-03-19 15:31:00,28.2,16.5,29.86,West,270,16.0,27.0,61,0.00,,,-99.99,WeatherLink 5.7,2013-03-19 19:31:00,
2013-03-19 15:41:00,28.6,16.1,29.86,West,270,17.0,29.0,59,0.00,,,-99.99,WeatherLink 5.7,2013-03-19 19:41:00,
2013-03-19 15:51:00,28.4,15.5,29.86,West,270,17.0,34.0,58,0.00,,,-99.99,WeatherLink 5.7,2013-03-19 19:51:00,
2013-03-19 16:01:00,28.6,16.1,29.86,West,270,16.0,30.0,59,0.00,,,-99.99,WeatherLink 5.7,2013-03-19 20:01:00,
2013-03-19 16:11:00,28.9,16.4,29.87,West,270,16.0,28.0,59,0.00,,,-99.99,WeatherLink 5.7,2013-03-19 20:11:00,
2013-03-19 16:21:00,28.9,16.0,29.87,West,270,17.0,30.0,58,0.00,,,-99.99,WeatherLink 5.7,2013-03-19 20:21:00,
2013-03-19 16:31:00,29.1,16.9,29.87,West,270,15.0,29.0,60,0.00,,,-99.99,WeatherLink 5.7,2013-03-19 20:31:00,
2013-03-19 16:41:00,29.3,16.7,29.88,West,270,16.0,32.0,59,0.00,,,-99.99,WeatherLink 5.7,2013-03-19 20:41:00,
2013-03-19 16:51:00,29.1,16.9,29.87,West,270,15.0,26.0,60,0.00,,,-99.99,WeatherLink 5.7,2013-03-19 20:51:00,
2013-03-19 17:01:00,29.5,16.5,29.88,West,270,15.0,29.0,58,0.00,,,-99.99,WeatherLink 5.7,2013-03-19 21:01:00,
2013-03-19 17:11:00,29.5,16.9,29.88,West,270,14.0,22.0,59,0.00,,,-99.99,WeatherLink 5.7,2013-03-19 21:11:00,
2013-03-19 17:21:00,29.3,16.3,29.88,West,270,16.0,30.0,58,0.00,,,-99.99,WeatherLink 5.7,2013-03-19 21:21:00,
2013-03-19 17:31:00,29.2,16.2,29.88,West,270,16.0,27.0,58,0.00,,,-99.99,WeatherLink 5.7,2013-03-19 21:31:00,
2013-03-19 17:41:00,29.2,16.6,29.89,West,270,14.0,25.0,59,0.00,,,-99.99,WeatherLink 5.7,2013-03-19 21:41:00,
2013-03-19 17:51:00,29.4,16.8,29.89,West,270,12.0,20.0,59,0.00,,,-99.99,WeatherLink 5.7,2013-03-19 21:51:00,
2013-03-19 18:01:00,29.8,16.0,29.90,West,270,15.0,26.0,56,0.00,,,-99.99,WeatherLink 5.7,2013-03-19 22:01:00,
2013-03-19 18:11:00,30.3,15.6,29.89,West,270,18.0,30.0,54,0.00,,,-99.99,WeatherLink 5.7,2013-03-19 22:11:00,
2013-03-19 18:21:00,30.6,16.3,29.90,West,270,13.0,20.0,55,0.00,,,-99.99,WeatherLink 5.7,2013-03-19 22:21:00,
2013-03-19 18:31:00,30.8,16.1,29.90,WNW,292,16.0,27.0,54,0.00,,,-99.99,WeatherLink 5.7,2013-03-19 22:31:00,
2013-03-19 18:41:00,30.5,15.8,29.91,West,270,16.0,29.0,54,0.00,,,-99.99,WeatherLink 5.7,2013-03-19 22:41:00,
2013-03-19 18:52:00,30.4,15.7,29.91,West,270,15.0,22.0,54,0.00,,,-99.99,WeatherLink 5.7,2013-03-19 22:52:00,
2013-03-19 19:01:00,30.2,15.5,29.92,WNW,292,14.0,27.0,54,0.00,,,-99.99,WeatherLink 5.7,2013-03-19 23:01:00,
2013-03-19 19:11:00,30.1,15.9,29.92,WNW,292,15.0,26.0,55,0.00,,,-99.99,WeatherLink 5.7,2013-03-19 23:11:00,
2013-03-19 19:22:00,30.1,15.4,29.92,WNW,292,16.0,26.0,54,0.00,,,-99.99,WeatherLink 5.7,2013-03-19 23:22:00,
2013-03-19 19:31:00,29.9,15.3,29.92,WNW,292,15.0,26.0,54,0.00,,,-99.99,WeatherLink 5.7,2013-03-19 23:31:00,
2013-03-19 19:42:00,29.8,15.6,29.93,WNW,292,14.0,26.0,55,0.00,,,-99.99,WeatherLink 5.7,2013-03-19 23:42:00,
2013-03-19 19:51:00,29.7,15.9,29.93,WNW,292,13.0,23.0,56,0.00,,,-99.99,WeatherLink 5.7,2013-03-19 23:51:00,
2013-03-19 20:01:00,29.6,15.4,29.93,WNW,292,14.0,23.0,55,0.00,,,-99.99,WeatherLink 5.7,2013-03-20 00:01:00,
2013-03-19 20:12:00,29.4,15.2,29.94,WNW,292,12.0,23.0,55,0.00,,,-99.99,WeatherLink 5.7,2013-03-20 00:12:00,
2013-03-19 20:21:00,29.0,15.7,29.94,WNW,292,10.0,23.0,57,0.00,,,-99.99,WeatherLink 5.7,2013-03-20 00:21:00,
2013-03-19 20:31:00,28.7,15.4,29.94,West,270,10.0,19.0,57,0.00,,,-99.99,WeatherLink 5.7,2013-03-20 00:31:00,
2013-03-19 20:41:00,28.5,15.2,29.94,WNW,292,10.0,18.0,57,0.00,,,-99.99,WeatherLink 5.7,2013-03-20 00:41:00,
2013-03-19 20:51:00,28.3,15.4,29.95,WNW,292,9.0,15.0,58,0.00,,,-99.99,WeatherLink 5.7,2013-03-20 00:51:00,
2013-03-19 21:01:00,28.1,15.6,29.95,WNW,292,9.0,15.0,59,0.00,,,-99.99,WeatherLink 5.7,2013-03-20 01:01:00,
2013-03-19 21:11:00,27.9,15.4,29.95,WNW,292,8.0,15.0,59,0.00,,,-99.99,WeatherLink 5.7,2013-03-20 01:11:00,
2013-03-19 21:21:00,27.9,15.4,29.95,WNW,292,9.0,14.0,59,0.00,,,-99.99,WeatherLink 5.7,2013-03-20 01:21:00,
2013-03-19 21:31:00,27.6,15.5,29.96,WNW,292,7.0,12.0,60,0.00,,,-99.99,WeatherLink 5.7,2013-03-20 01:31:00,
2013-03-19 21:41:00,27.3,15.2,29.96,WNW,292,7.0,13.0,60,0.00,,,-99.99,WeatherLink 5.7,2013-03-20 01:41:00,
2013-03-19 21:51:00,27.2,15.1,29.96,WNW,292,8.0,14.0,60,0.00,,,-99.99,WeatherLink 5.7,2013-03-20 01:51:00,
2013-03-19 22:01:00,27.0,14.6,29.97,WNW,292,8.0,16.0,59,0.00,,,-99.99,WeatherLink 5.7,2013-03-20 02:01:00,
2013-03-19 22:11:00,27.0,14.6,29.97,WNW,292,8.0,18.0,59,0.00,,,-99.99,WeatherLink 5.7,2013-03-20 02:11:00,
2013-03-19 22:21:00,26.9,14.5,29.97,WNW,292,7.0,12.0,59,0.00,,,-99.99,WeatherLink 5.7,2013-03-20 02:21:00,
2013-03-19 22:31:00,26.7,14.7,29.97,WNW,292,7.0,12.0,60,0.00,,,-99.99,WeatherLink 5.7,2013-03-20 02:31:00,
2013-03-19 22:41:00,26.5,14.5,29.97,WNW,292,6.0,10.0,60,0.00,,,-99.99,WeatherLink 5.7,2013-03-20 02:41:00,
2013-03-19 22:51:00,26.1,14.5,29.97,WNW,292,5.0,9.0,61,0.00,,,-99.99,WeatherLink 5.7,2013-03-20 02:51:00,
2013-03-19 23:01:00,25.7,14.1,29.97,WNW,292,5.0,8.0,61,0.00,,,-99.99,WeatherLink 5.7,2013-03-20 03:01:00,
2013-03-19 23:11:00,25.3,14.1,29.97,WNW,292,4.0,8.0,62,0.00,,,-99.99,WeatherLink 5.7,2013-03-20 03:11:00,
2013-03-19 23:21:00,25.0,13.8,29.97,WNW,292,4.0,7.0,62,0.00,,,-99.99,WeatherLink 5.7,2013-03-20 03:21:00,
2013-03-19 23:31:00,24.8,14.0,29.97,WNW,292,6.0,11.0,63,0.00,,,-99.99,WeatherLink 5.7,2013-03-20 03:31:00,
2013-03-19 23:41:00,24.9,14.1,29.97,WNW,292,6.0,10.0,63,0.00,,,-99.99,WeatherLink 5.7,2013-03-20 03:41:00,
2013-03-19 23:51:00,25.2,14.0,29.97,WNW,292,7.0,13.0,62,0.00,,,-99.99,WeatherLink 5.7,2013-03-20 03:51:00,